메인 페이지
METAR-TAF:

METAR-TAF

공항 :

롤랑 가로스 공항

생드니, 레위니옹

위도: 20-53S, 경도: 055-31E, 고도: 21m

현재 날씨관측

예보는 28분 전, 00:30시(UTC)에 발표되었습니다.
남남서7kt
온도 23°C
습도 78%
기압 1014 hPa
시정 10km 이상
1500m 미만 상공 구름 및 적란운 없음

METAR: FMEE 100030Z AUTO 20007KT CAVOK 23/19 Q1014 BECMG 14010KT

시각: 04:58 (00:58 UTC)

예보

예보는 1 시간 58분 전, 23:00시(UTC)에 발표되었습니다.
예보 대상 시간: 10일 00시부터 11일 06시까지 (UTC)
남동10kt
시정 10km 이상
고도 2600ft 상공 구름 조금
고도 4600ft 상공 구름 보통
전환 중
10일 04시부터 10일 06시까지 (UTC)
동북동15kt
일시적
10일 10시부터 10일 15시까지 (UTC)
고도 2000ft 상공 구름 조금, 적란운.

TAF: FMEE 092300Z 1000/1106 14010KT 9999 FEW026 SCT046 BECMG 1004/1006 07015KT TEMPO 1010/1015 FEW020CB

4,000개 이상의 공항 관측 자료 및 예보 (METAR 및 TAF 보고).

지도상에서 검색 가능한 기상관측소가 노란 점과 빨간 점으로 표시되어 있습니다.

기상관측소 명을 보려면 표시 위로 마우스를 이동하세요.

날씨 관측과 예보를 보려면 클릭하세요.

지도 변경 : 확대하려면 엑스 표시가 있는 녹색 버튼, 축소하려면 빼기 표시가 있는 녹색 버튼, 다음 페이지의 지도를 보려면 녹색 화살표를 클릭하세요.


METAR-TAF: